»·PEaware :: AAL629 KAFO-KSLC

AAL629 :: KAFO-KSLC

FLIGHT INFORMATION

Flight Status: Arrived
Operator:
American Airlines
More flights by this operator :: More flights under this callsign
Pilot: Aker J. (16898)
Aircraft: EMBRAER EMB-170/175
(E170)
More flights by this aircraft type
Origin: KAFO Afton Mun
United States
Destination: KSLC Salt Lake City Intl
United States
More flights between these airports :: More routes between these airports
Route: +LHO NORDK5
File this flight plan on PilotEdge
Remarks:
Altitude:
(Current/Filed)
20,000ft
Speed:
(Current/Filed)
450kts
Departed: 24-Apr-18 04:21 PM
Arrived: 24-Apr-18 05:00 PM
Distance/Time
Traveled:
125nm/0:39
Distance/Time
To Go:
Arrived

Flight Plot

Page will automatically refresh every two minutes.

Flight plan parsing failed; only flown route is shown


Map Options




Map Legend


Flown Route
Filed Route
Departure Airport
Arrival Airport
Navaid (VOR, NDB)
Fix

Horizontal Profiles

Position Reports

Time Latitude Longitude Heading Altitude Ground
Speed
24-Apr-18 15:53 42.710313 -110.940647 270 6172ft 0kts
24-Apr-18 15:54 42.710313 -110.940647 270 6172ft 0kts
24-Apr-18 15:55 42.710313 -110.940647 270 6172ft 0kts
24-Apr-18 15:56 42.710313 -110.940647 270 6172ft 0kts
24-Apr-18 15:57 42.710313 -110.940647 270 6172ft 0kts
24-Apr-18 15:58 42.710313 -110.940647 270 6172ft 0kts
24-Apr-18 15:59 42.710313 -110.940647 270 6172ft 0kts
24-Apr-18 16:00 42.710313 -110.940647 270 6172ft 0kts
24-Apr-18 16:01 42.710313 -110.940647 270 6172ft 0kts
24-Apr-18 16:02 42.710313 -110.940647 270 6172ft 0kts
24-Apr-18 16:03 42.710313 -110.940647 270 6172ft 0kts
24-Apr-18 16:04 42.710313 -110.940647 270 6172ft 0kts
24-Apr-18 16:05 42.710313 -110.940647 270 6172ft 0kts
24-Apr-18 16:06 42.710313 -110.940647 270 6172ft 0kts
24-Apr-18 16:07 42.710313 -110.940647 270 6172ft 0kts
24-Apr-18 16:08 42.710313 -110.940647 270 6172ft 0kts
24-Apr-18 16:09 42.710313 -110.940647 270 6172ft 0kts
24-Apr-18 16:10 42.710313 -110.940647 270 6172ft 0kts
24-Apr-18 16:11 42.710313 -110.940647 270 6172ft 0kts
24-Apr-18 16:12 42.710313 -110.940647 270 6172ft 0kts
24-Apr-18 16:13 42.710313 -110.940647 270 6172ft 0kts
24-Apr-18 16:14 42.710684 -110.940793 10 6171ft 8kts
24-Apr-18 16:15 42.711369 -110.942076 349 6168ft 7kts
24-Apr-18 16:16 42.715175 -110.942100 1 6171ft 8kts
24-Apr-18 16:17 42.717885 -110.941833 61 6176ft 11kts
24-Apr-18 16:18 42.718282 -110.941218 324 6178ft 0kts
24-Apr-18 16:19 42.717394 -110.942128 180 6175ft 32kts
24-Apr-18 16:20 42.679799 -110.940963 180 6930ft 209kts
24-Apr-18 16:21 42.679799 -110.940963 180 6930ft 209kts
24-Apr-18 16:22 42.653741 -110.982430 268 9210ft 236kts
24-Apr-18 16:23 42.649450 -111.074039 262 12614ft 257kts
24-Apr-18 16:24 42.625248 -111.167507 241 15314ft 284kts
24-Apr-18 16:25 42.558117 -111.231280 201 16954ft 311kts
24-Apr-18 16:26 42.480394 -111.288240 212 19075ft 329kts
24-Apr-18 16:27 42.405311 -111.360962 217 20406ft 371kts
24-Apr-18 16:28 42.322170 -111.448846 218 20381ft 445kts
24-Apr-18 16:29 42.228098 -111.549844 218 20304ft 412kts
24-Apr-18 16:30 42.141899 -111.642334 218 19998ft 390kts
24-Apr-18 16:31 42.073117 -111.716115 218 20244ft 382kts
24-Apr-18 16:32 41.989044 -111.805874 218 20318ft 393kts
24-Apr-18 16:33 41.901026 -111.898697 217 20317ft 412kts
24-Apr-18 16:34 41.811999 -111.990631 217 20309ft 426kts
24-Apr-18 16:35 41.702879 -112.041711 180 20304ft 429kts
24-Apr-18 16:36 41.587787 -112.045959 178 19271ft 390kts
24-Apr-18 16:37 41.495723 -112.089477 221 19218ft 360kts
24-Apr-18 16:38 41.441115 -112.152478 220 19197ft 346kts
24-Apr-18 16:39 41.380217 -112.222229 220 19192ft 333kts
24-Apr-18 16:40 41.297179 -112.247035 171 19205ft 330kts
24-Apr-18 16:41 41.199819 -112.234820 171 19197ft 374kts
24-Apr-18 16:42 41.091765 -112.220345 171 19233ft 407kts
24-Apr-18 16:43 40.975932 -112.201049 171 19226ft 431kts
24-Apr-18 16:44 40.868620 -112.180097 171 17259ft 396kts
24-Apr-18 16:45 40.763967 -112.160914 180 15222ft 368kts
24-Apr-18 16:46 40.665163 -112.164766 181 13230ft 347kts
24-Apr-18 16:47 40.579307 -112.167766 181 11298ft 264kts
24-Apr-18 16:48 40.524755 -112.169617 181 11055ft 219kts
24-Apr-18 16:49 40.476456 -112.139123 92 11052ft 214kts
24-Apr-18 16:50 40.473940 -112.059595 91 9835ft 219kts
24-Apr-18 16:51 40.488331 -111.998759 6 9021ft 163kts
24-Apr-18 16:52 40.533215 -111.979663 21 8541ft 178kts
24-Apr-18 16:53 40.574136 -111.973464 353 7246ft 179kts
24-Apr-18 16:54 40.618887 -111.978462 354 6922ft 157kts
24-Apr-18 16:55 40.660218 -111.982489 352 6286ft 136kts
24-Apr-18 16:56 40.696096 -111.986995 353 5496ft 123kts
24-Apr-18 16:57 40.730605 -111.990322 349 4867ft 126kts
24-Apr-18 16:58 40.765417 -111.994383 352 4417ft 126kts
24-Apr-18 16:59 40.790824 -111.996540 33 4222ft 13kts

Navigation Log

Ident Type
Flight plan parsing failed, navigation log unavailable